Time;durP1;ratioP1;P1;durP2;ratioP2;P2;SDS_P1;SDS_P2;PMS_P1;PMS_P2;Temp;Humidity;BMP_temperature;BMP_pressure;BME280_temperature;BME280_humidity;BME280_pressure;Samples;Min_cycle;Max_cycle;Signal;HPM_P1;HPM_P2
2021/12/17 00:02:38;;;;;;;59.40;31.73;;;;;;;;;;5014263;28;20191;-63
2021/12/17 00:04:28;;;;;;;56.47;32.07;;;;;;;;;;5013406;28;20216;-63
2021/12/17 00:06:54;;;;;;;55.67;32.03;;;;;;;;;;5014283;28;20180;-63
2021/12/17 00:09:20;;;;;;;64.17;35.37;;;;;;;;;;5014109;28;20655;-63
2021/12/17 00:11:47;;;;;;;62.93;33.27;;;;;;;;;;5014167;28;20547;-63
2021/12/17 00:14:20;;;;;;;65.27;33.67;;;;;;;;;;5012596;28;20589;-63
2021/12/17 00:16:46;;;;;;;65.10;34.90;;;;;;;;;;5014165;28;20171;-63
2021/12/17 00:19:23;;;;;;;58.13;32.90;;;;;;;;;;5013339;28;20183;-63
2021/12/17 00:44:11;;;;;;;61.03;34.47;;;;;;;;;;5018366;28;20204;-63
2021/12/17 00:49:21;;;;;;;66.40;36.03;;;;;;;;;;5017311;28;20181;-63
2021/12/17 00:54:21;;;;;;;60.33;33.60;;;;;;;;;;5017057;28;20270;-63
2021/12/17 00:56:48;;;;;;;63.47;35.70;;;;;;;;;;5017397;28;20168;-63
2021/12/17 00:59:14;;;;;;;62.73;35.67;;;;;;;;;;5016919;28;20176;-63
2021/12/17 01:01:40;;;;;;;64.53;36.87;;;;;;;;;;5016955;28;20202;-63
2021/12/17 01:04:06;;;;;;;59.30;35.10;;;;;;;;;;5015660;28;20553;-63
2021/12/17 01:06:32;;;;;;;65.70;35.80;;;;;;;;;;5017046;28;20204;-63
2021/12/17 01:08:58;;;;;;;68.67;36.40;;;;;;;;;;5016707;28;20183;-63
2021/12/17 01:11:25;;;;;;;61.50;34.27;;;;;;;;;;5015433;28;20219;-65
2021/12/17 01:13:51;;;;;;;67.20;34.13;;;;;;;;;;5016443;28;20215;-62
2021/12/17 01:16:17;;;;;;;69.33;35.10;;;;;;;;;;5016814;28;20183;-63
2021/12/17 01:19:24;;;;;;;69.20;35.93;;;;;;;;;;5016649;28;20191;-64
2021/12/17 01:22:11;;;;;;;65.70;34.90;;;;;;;;;;5012494;28;20205;-63
2021/12/17 01:24:50;;;;;;;73.60;36.23;;;;;;;;;;5016533;28;20215;-63
2021/12/17 01:35:42;;;;;;;66.83;38.63;;;;;;;;;;5016535;28;20187;-63
2021/12/17 01:43:59;;;;;;;71.63;34.80;;;;;;;;;;5016441;28;20277;-63
2021/12/17 01:46:28;;;;;;;72.57;36.57;;;;;;;;;;5016210;28;20676;-63
2021/12/17 01:59:59;;;;;;;67.77;33.33;;;;;;;;;;5015908;28;20231;-62
2021/12/17 02:02:26;;;;;;;63.57;32.90;;;;;;;;;;5016512;28;20170;-63
2021/12/17 02:04:52;;;;;;;66.63;33.90;;;;;;;;;;5015767;28;20231;-63
2021/12/17 02:07:17;;;;;;;70.73;33.90;;;;;;;;;;5014325;28;20200;-63
2021/12/17 02:31:32;;;;;;;67.77;33.53;;;;;;;;;;5015800;28;20719;-63
2021/12/17 02:34:08;;;;;;;67.33;34.70;;;;;;;;;;5015742;28;20217;-64
2021/12/17 02:36:36;;;;;;;66.60;34.27;;;;;;;;;;5014297;28;20168;-63
2021/12/17 02:39:26;;;;;;;64.27;33.07;;;;;;;;;;5015986;28;20171;-63
2021/12/17 02:47:19;;;;;;;65.20;34.50;;;;;;;;;;5020869;28;20698;-64
2021/12/17 02:49:46;;;;;;;67.30;34.00;;;;;;;;;;5020875;28;20172;-63
2021/12/17 02:52:12;;;;;;;67.97;34.27;;;;;;;;;;5015644;28;20186;-63
2021/12/17 02:54:39;;;;;;;71.70;34.80;;;;;;;;;;5015237;28;20227;-63
2021/12/17 02:57:06;;;;;;;81.23;35.37;;;;;;;;;;5013890;28;20188;-63
2021/12/17 02:59:33;;;;;;;71.30;34.97;;;;;;;;;;5013632;28;20187;-63
2021/12/17 03:01:59;;;;;;;74.67;35.10;;;;;;;;;;5014687;28;20188;-63
2021/12/17 03:04:27;;;;;;;76.77;33.77;;;;;;;;;;5013951;28;20203;-63
2021/12/17 03:06:54;;;;;;;74.67;34.00;;;;;;;;;;5015358;28;20291;-63
2021/12/17 03:09:31;;;;;;;72.63;34.50;;;;;;;;;;5015161;28;20180;-63
2021/12/17 03:11:57;;;;;;;75.37;33.23;;;;;;;;;;5013686;28;20245;-63
2021/12/17 03:14:25;;;;;;;85.67;35.57;;;;;;;;;;5014468;28;20711;-63
2021/12/17 03:17:03;;;;;;;87.67;36.47;;;;;;;;;;5014911;28;20222;-62
2021/12/17 03:24:58;;;;;;;81.20;34.33;;;;;;;;;;5014714;28;20288;-63
2021/12/17 03:27:24;;;;;;;76.73;32.20;;;;;;;;;;5015396;28;20684;-63
2021/12/17 03:29:50;;;;;;;80.60;33.70;;;;;;;;;;5014670;28;20651;-63
2021/12/17 03:32:16;;;;;;;86.87;33.93;;;;;;;;;;5014991;28;20663;-63
2021/12/17 03:34:42;;;;;;;75.30;33.17;;;;;;;;;;5015121;28;20564;-63
2021/12/17 03:37:08;;;;;;;87.33;34.47;;;;;;;;;;5015679;28;20188;-63
2021/12/17 03:39:37;;;;;;;91.70;34.57;;;;;;;;;;5014587;28;20570;-63
2021/12/17 03:42:06;;;;;;;85.43;32.87;;;;;;;;;;5015471;28;20710;-63
2021/12/17 03:44:32;;;;;;;81.57;34.67;;;;;;;;;;5014289;28;20270;-63
2021/12/17 03:46:58;;;;;;;85.30;34.53;;;;;;;;;;5014130;28;20581;-64
2021/12/17 03:49:24;;;;;;;79.37;33.03;;;;;;;;;;5014106;28;20180;-63
2021/12/17 03:52:04;;;;;;;82.77;33.17;;;;;;;;;;5014294;28;20180;-63
2021/12/17 03:54:34;;;;;;;90.27;33.37;;;;;;;;;;5013969;28;20191;-63
2021/12/17 03:57:00;;;;;;;86.93;33.87;;;;;;;;;;5014079;28;20195;-63
2021/12/17 03:59:26;;;;;;;93.50;33.87;;;;;;;;;;5013973;28;20644;-63
2021/12/17 04:01:52;;;;;;;83.63;33.40;;;;;;;;;;5014124;28;20262;-63
2021/12/17 04:04:18;;;;;;;90.67;34.33;;;;;;;;;;5014622;28;20207;-63
2021/12/17 04:06:44;;;;;;;92.30;34.33;;;;;;;;;;5014187;28;20342;-63
2021/12/17 04:09:10;;;;;;;94.80;32.97;;;;;;;;;;5013318;28;20245;-63
2021/12/17 04:11:36;;;;;;;90.03;31.93;;;;;;;;;;5014527;28;20541;-63
2021/12/17 04:14:03;;;;;;;88.93;32.13;;;;;;;;;;5013544;28;20200;-63
2021/12/17 04:16:32;;;;;;;87.27;33.00;;;;;;;;;;5018174;28;20213;-62
2021/12/17 04:18:59;;;;;;;79.80;30.57;;;;;;;;;;5017986;28;20176;-63
2021/12/17 04:21:25;;;;;;;82.83;30.57;;;;;;;;;;5016345;28;20188;-63
2021/12/17 04:23:53;;;;;;;83.20;30.03;;;;;;;;;;5016273;28;20706;-63
2021/12/17 04:26:19;;;;;;;82.70;29.03;;;;;;;;;;5017769;28;20695;-63
2021/12/17 04:28:49;;;;;;;81.70;30.47;;;;;;;;;;5016511;28;20176;-62
2021/12/17 04:31:15;;;;;;;80.50;28.80;;;;;;;;;;5016379;28;20194;-63
2021/12/17 04:33:42;;;;;;;71.83;28.60;;;;;;;;;;5017409;28;20204;-63
2021/12/17 04:36:10;;;;;;;85.13;28.47;;;;;;;;;;5017682;28;20273;-63
2021/12/17 04:38:36;;;;;;;80.53;28.63;;;;;;;;;;5018252;28;20171;-60
2021/12/17 04:44:08;;;;;;;73.30;28.50;;;;;;;;;;5017251;28;20204;-63
2021/12/17 04:47:00;;;;;;;70.97;26.73;;;;;;;;;;5017319;28;20218;-63
2021/12/17 04:57:41;;;;;;;82.87;28.50;;;;;;;;;;5017717;28;20184;-63
2021/12/17 05:00:17;;;;;;;81.73;27.63;;;;;;;;;;5017316;28;20263;-63
2021/12/17 05:02:47;;;;;;;76.70;27.40;;;;;;;;;;5017378;28;20206;-63
2021/12/17 05:05:14;;;;;;;68.73;25.97;;;;;;;;;;5017091;28;20191;-63
2021/12/17 05:07:44;;;;;;;77.03;27.47;;;;;;;;;;5015958;28;20587;-63
2021/12/17 05:18:23;;;;;;;76.70;29.43;;;;;;;;;;5017211;28;20179;-63
2021/12/17 05:20:53;;;;;;;82.37;28.30;;;;;;;;;;5016909;28;20647;-63
2021/12/17 05:23:23;;;;;;;85.57;30.00;;;;;;;;;;5015200;28;20216;-63
2021/12/17 05:25:49;;;;;;;86.53;29.20;;;;;;;;;;5016644;28;20164;-63
2021/12/17 05:28:15;;;;;;;88.20;28.73;;;;;;;;;;5015165;28;20665;-63
2021/12/17 05:30:46;;;;;;;85.83;30.47;;;;;;;;;;5016324;28;20652;-63
2021/12/17 05:33:13;;;;;;;90.67;29.33;;;;;;;;;;5017125;28;20160;-61
2021/12/17 05:35:39;;;;;;;92.07;29.33;;;;;;;;;;5016653;28;20218;-63
2021/12/17 05:38:05;;;;;;;79.43;26.97;;;;;;;;;;5015063;28;20180;-63
2021/12/17 05:40:31;;;;;;;97.50;29.03;;;;;;;;;;5016459;28;20184;-63
2021/12/17 05:43:00;;;;;;;86.03;28.47;;;;;;;;;;5016690;28;20615;-63
2021/12/17 05:45:34;;;;;;;100.37;30.80;;;;;;;;;;5016512;28;20675;-63
2021/12/17 05:48:04;;;;;;;105.57;33.07;;;;;;;;;;5016707;28;20646;-63
2021/12/17 05:50:31;;;;;;;106.10;32.67;;;;;;;;;;5016896;28;20164;-63
2021/12/17 05:52:57;;;;;;;100.83;30.23;;;;;;;;;;5016211;28;20225;-63
2021/12/17 05:55:23;;;;;;;114.07;31.03;;;;;;;;;;5015906;28;20199;-63
2021/12/17 05:57:49;;;;;;;114.50;33.53;;;;;;;;;;5014796;28;20547;-63
2021/12/17 06:00:15;;;;;;;111.10;31.17;;;;;;;;;;5016108;28;20226;-63
2021/12/17 06:02:41;;;;;;;117.97;30.83;;;;;;;;;;5016083;28;20630;-63
2021/12/17 06:05:07;;;;;;;119.53;32.27;;;;;;;;;;5016053;28;20231;-63
2021/12/17 06:07:33;;;;;;;128.70;33.33;;;;;;;;;;5016228;28;20699;-62
2021/12/17 06:10:03;;;;;;;122.70;31.53;;;;;;;;;;5015004;28;20184;-61
2021/12/17 06:12:29;;;;;;;131.17;34.30;;;;;;;;;;5014923;28;20533;-63
2021/12/17 06:14:55;;;;;;;126.67;31.80;;;;;;;;;;5016216;28;20276;-63
2021/12/17 06:17:21;;;;;;;126.67;34.27;;;;;;;;;;5015693;28;20187;-63
2021/12/17 06:19:47;;;;;;;127.50;33.60;;;;;;;;;;5016369;28;20248;-63
2021/12/17 06:22:14;;;;;;;125.60;32.80;;;;;;;;;;5015694;28;20187;-63
2021/12/17 06:24:44;;;;;;;127.87;33.27;;;;;;;;;;5014350;28;20706;-63
2021/12/17 06:27:10;;;;;;;104.30;31.47;;;;;;;;;;5016404;28;20212;-63
2021/12/17 06:29:36;;;;;;;115.13;33.77;;;;;;;;;;5014420;28;20264;-63
2021/12/17 06:32:02;;;;;;;125.97;33.10;;;;;;;;;;5016201;28;20711;-63
2021/12/17 06:34:28;;;;;;;112.37;31.67;;;;;;;;;;5015479;28;20196;-63
2021/12/17 06:36:54;;;;;;;116.13;30.80;;;;;;;;;;5014805;28;20530;-63
2021/12/17 06:39:20;;;;;;;116.70;30.50;;;;;;;;;;5015770;28;20230;-63
2021/12/17 06:41:46;;;;;;;107.80;30.87;;;;;;;;;;5015830;28;20182;-63
2021/12/17 06:44:14;;;;;;;114.97;31.23;;;;;;;;;;5015567;28;20229;-64
2021/12/17 06:47:02;;;;;;;98.70;30.17;;;;;;;;;;5015748;28;20204;-63
2021/12/17 07:10:48;;;;;;;100.50;28.90;;;;;;;;;;5034775;28;20187;-64
2021/12/17 07:30:49;;;;;;;93.77;25.50;;;;;;;;;;5036540;28;20167;-65
2021/12/17 07:32:30;;;;;;;91.83;26.07;;;;;;;;;;5035648;28;20187;-65
2021/12/17 07:39:51;;;;;;;90.37;26.80;;;;;;;;;;5036000;28;20187;-65
2021/12/17 07:42:17;;;;;;;86.80;25.47;;;;;;;;;;5017398;28;20175;-65
2021/12/17 07:44:43;;;;;;;84.83;25.03;;;;;;;;;;5018214;28;20214;-65
2021/12/17 07:47:09;;;;;;;78.63;23.73;;;;;;;;;;5035355;28;20206;-65
2021/12/17 07:49:35;;;;;;;80.20;24.30;;;;;;;;;;5017653;28;20179;-66
2021/12/17 07:52:01;;;;;;;69.83;22.33;;;;;;;;;;5035919;28;20171;-64
2021/12/17 07:54:27;;;;;;;81.37;24.53;;;;;;;;;;5018449;28;20305;-64
2021/12/17 07:56:53;;;;;;;73.50;22.37;;;;;;;;;;5048378;28;20171;-65
2021/12/17 07:59:19;;;;;;;77.90;23.63;;;;;;;;;;5050980;28;20182;-63
2021/12/17 08:01:45;;;;;;;85.73;24.70;;;;;;;;;;5051197;28;20183;-65
2021/12/17 08:04:11;;;;;;;73.93;23.60;;;;;;;;;;5036022;28;20211;-65
2021/12/17 08:06:37;;;;;;;73.00;22.57;;;;;;;;;;5043126;28;20206;-64
2021/12/17 08:09:07;;;;;;;68.07;22.27;;;;;;;;;;5034349;28;20187;-65
2021/12/17 08:11:39;;;;;;;78.17;23.60;;;;;;;;;;5016298;28;20233;-65
2021/12/17 08:14:10;;;;;;;81.13;22.60;;;;;;;;;;5034529;28;20162;-65
2021/12/17 08:16:45;;;;;;;77.63;23.20;;;;;;;;;;5034243;28;20175;-65
2021/12/17 08:23:21;;;;;;;77.80;23.63;;;;;;;;;;5034340;28;20634;-65
2021/12/17 08:27:42;;;;;;;75.13;23.27;;;;;;;;;;5034148;28;20194;-65
2021/12/17 08:32:41;;;;;;;81.77;23.80;;;;;;;;;;5033954;28;20171;-65
2021/12/17 08:35:08;;;;;;;96.43;26.60;;;;;;;;;;5033636;28;20195;-66
2021/12/17 08:37:34;;;;;;;91.50;26.73;;;;;;;;;;5015655;28;20187;-66
2021/12/17 08:40:00;;;;;;;97.37;27.90;;;;;;;;;;5015268;28;20202;-65
2021/12/17 08:42:27;;;;;;;73.63;23.73;;;;;;;;;;5015394;28;20187;-65
2021/12/17 08:44:53;;;;;;;101.77;28.80;;;;;;;;;;5033779;28;20195;-66
2021/12/17 08:47:19;;;;;;;91.23;27.83;;;;;;;;;;5033081;28;20195;-67
2021/12/17 08:49:45;;;;;;;81.70;25.73;;;;;;;;;;5015576;28;20201;-66
2021/12/17 08:52:13;;;;;;;89.80;26.37;;;;;;;;;;5033233;28;20237;-66
2021/12/17 08:54:39;;;;;;;90.90;27.23;;;;;;;;;;5033311;28;20207;-66
2021/12/17 08:57:05;;;;;;;83.33;26.47;;;;;;;;;;5034073;28;20186;-66
2021/12/17 08:59:31;;;;;;;78.27;24.63;;;;;;;;;;5033506;28;20183;-66
2021/12/17 09:01:57;;;;;;;85.07;26.27;;;;;;;;;;5036989;28;20210;-66
2021/12/17 09:04:27;;;;;;;81.13;26.87;;;;;;;;;;5037693;28;20199;-66
2021/12/17 09:06:53;;;;;;;78.13;25.93;;;;;;;;;;5036767;28;20234;-66
2021/12/17 09:09:21;;;;;;;71.77;24.93;;;;;;;;;;5036701;28;20302;-66
2021/12/17 09:11:46;;;;;;;78.53;26.20;;;;;;;;;;5019318;28;20183;-66
2021/12/17 09:14:13;;;;;;;83.43;26.90;;;;;;;;;;5039465;28;20333;-66
2021/12/17 09:16:39;;;;;;;78.07;26.53;;;;;;;;;;5038155;28;20186;-65
2021/12/17 09:19:07;;;;;;;79.43;26.03;;;;;;;;;;5038157;28;20175;-64
2021/12/17 09:21:33;;;;;;;66.33;24.83;;;;;;;;;;5020172;28;20301;-65
2021/12/17 09:23:59;;;;;;;66.63;25.77;;;;;;;;;;5037092;28;20620;-64
2021/12/17 09:26:26;;;;;;;61.97;22.93;;;;;;;;;;5037640;28;20183;-64
2021/12/17 09:28:52;;;;;;;67.33;24.40;;;;;;;;;;5037200;28;20171;-65
2021/12/17 09:31:19;;;;;;;64.73;23.07;;;;;;;;;;5037021;28;20202;-65
2021/12/17 09:33:46;;;;;;;75.83;23.53;;;;;;;;;;5019655;28;20179;-65
2021/12/17 09:36:13;;;;;;;68.13;24.23;;;;;;;;;;5037184;28;20199;-65
2021/12/17 09:38:39;;;;;;;69.43;25.47;;;;;;;;;;5037224;28;20638;-65
2021/12/17 09:41:05;;;;;;;72.00;25.20;;;;;;;;;;5019316;28;20206;-65
2021/12/17 09:43:36;;;;;;;66.07;26.03;;;;;;;;;;5036871;28;20186;-66
2021/12/17 09:46:06;;;;;;;66.87;25.83;;;;;;;;;;5019427;28;20199;-65
2021/12/17 09:48:32;;;;;;;66.57;25.73;;;;;;;;;;5019413;28;20210;-65
2021/12/17 09:50:58;;;;;;;65.90;25.07;;;;;;;;;;5036351;28;20198;-65
2021/12/17 09:53:24;;;;;;;59.57;24.63;;;;;;;;;;5036843;28;20647;-65
2021/12/17 09:55:51;;;;;;;61.57;25.57;;;;;;;;;;5019335;28;20272;-64
2021/12/17 09:58:17;;;;;;;61.20;24.87;;;;;;;;;;5036241;28;20182;-67
2021/12/17 10:00:44;;;;;;;58.80;24.20;;;;;;;;;;5036116;28;20183;-66
2021/12/17 10:03:10;;;;;;;59.00;24.83;;;;;;;;;;5036420;28;20179;-66
2021/12/17 10:05:37;;;;;;;51.53;24.30;;;;;;;;;;5036297;28;20235;-66
2021/12/17 10:08:10;;;;;;;53.10;22.30;;;;;;;;;;5036207;28;20567;-66
2021/12/17 10:10:38;;;;;;;54.03;23.07;;;;;;;;;;5018225;28;20171;-66
2021/12/17 10:13:20;;;;;;;53.77;24.17;;;;;;;;;;5036125;28;20603;-66
2021/12/17 10:15:52;;;;;;;45.47;20.23;;;;;;;;;;5019085;28;20199;-66
2021/12/17 10:18:18;;;;;;;49.60;21.37;;;;;;;;;;5036418;28;20164;-66
2021/12/17 10:21:01;;;;;;;47.10;21.80;;;;;;;;;;5018477;28;20183;-66
2021/12/17 10:23:28;;;;;;;43.17;19.53;;;;;;;;;;5018138;28;20206;-66
2021/12/17 10:25:54;;;;;;;52.10;19.80;;;;;;;;;;5035768;28;20199;-66
2021/12/17 10:28:20;;;;;;;44.57;20.63;;;;;;;;;;5017920;28;20203;-66
2021/12/17 10:30:48;;;;;;;44.73;21.07;;;;;;;;;;5037701;28;20574;-66
2021/12/17 10:33:17;;;;;;;46.60;21.27;;;;;;;;;;5034857;28;20171;-66
2021/12/17 10:35:46;;;;;;;44.67;21.50;;;;;;;;;;5035686;28;20199;-65
2021/12/17 10:38:15;;;;;;;46.23;23.73;;;;;;;;;;5035858;28;20591;-66
2021/12/17 10:40:46;;;;;;;43.17;21.20;;;;;;;;;;5019513;28;20187;-66
2021/12/17 10:43:25;;;;;;;41.37;21.00;;;;;;;;;;5045099;28;20167;-67
2021/12/17 10:46:01;;;;;;;44.73;22.13;;;;;;;;;;5047043;28;20199;-66
2021/12/17 10:48:52;;;;;;;46.57;22.10;;;;;;;;;;5047228;28;20580;-66
2021/12/17 10:51:19;;;;;;;49.00;21.77;;;;;;;;;;5037824;28;20614;-65
2021/12/17 10:53:51;;;;;;;42.27;19.83;;;;;;;;;;5035729;28;20600;-66
2021/12/17 10:56:17;;;;;;;39.53;19.87;;;;;;;;;;5034917;28;20636;-65
2021/12/17 10:58:53;;;;;;;36.67;21.30;;;;;;;;;;5017298;28;20753;-66
2021/12/17 11:01:27;;;;;;;38.43;21.20;;;;;;;;;;5034992;28;20182;-66
2021/12/17 11:04:03;;;;;;;41.80;22.27;;;;;;;;;;5034584;28;20171;-65
2021/12/17 11:06:40;;;;;;;40.77;20.77;;;;;;;;;;5037984;28;20171;-67
2021/12/17 11:09:06;;;;;;;36.47;20.10;;;;;;;;;;5043051;28;20174;-66
2021/12/17 11:11:33;;;;;;;33.90;19.70;;;;;;;;;;5044100;28;20183;-66
2021/12/17 11:14:00;;;;;;;40.50;19.90;;;;;;;;;;5025301;28;20182;-66
2021/12/17 11:16:27;;;;;;;32.93;17.30;;;;;;;;;;5046471;28;20186;-67
2021/12/17 11:18:53;;;;;;;31.93;17.23;;;;;;;;;;5026534;28;20179;-66
2021/12/17 11:21:20;;;;;;;34.37;19.23;;;;;;;;;;5018111;28;20179;-67
2021/12/17 11:23:46;;;;;;;33.07;17.93;;;;;;;;;;5017139;28;20224;-66
2021/12/17 11:26:12;;;;;;;32.03;17.67;;;;;;;;;;5035017;28;20679;-66
2021/12/17 11:28:38;;;;;;;34.30;17.73;;;;;;;;;;5017526;28;20195;-67
2021/12/17 11:31:04;;;;;;;39.17;19.73;;;;;;;;;;5036019;28;20258;-66
2021/12/17 11:33:31;;;;;;;35.83;20.33;;;;;;;;;;5017664;28;20179;-67
2021/12/17 11:35:57;;;;;;;36.93;21.73;;;;;;;;;;5035687;28;20195;-67
2021/12/17 11:38:32;;;;;;;32.83;18.63;;;;;;;;;;5034464;28;20187;-66
2021/12/17 11:41:16;;;;;;;34.50;19.03;;;;;;;;;;5034005;28;20211;-65
2021/12/17 11:44:02;;;;;;;37.23;19.77;;;;;;;;;;5015949;28;20273;-66
2021/12/17 11:46:29;;;;;;;26.43;15.67;;;;;;;;;;5034186;28;20546;-66
2021/12/17 11:48:55;;;;;;;28.03;17.13;;;;;;;;;;5016595;28;20270;-67
2021/12/17 11:51:26;;;;;;;33.07;18.00;;;;;;;;;;5016165;28;20194;-65
2021/12/17 11:53:55;;;;;;;30.60;16.77;;;;;;;;;;5015980;28;20564;-66
2021/12/17 11:56:35;;;;;;;45.40;24.67;;;;;;;;;;5033935;28;20183;-65
2021/12/17 11:59:01;;;;;;;35.47;20.47;;;;;;;;;;5016080;28;20190;-65
2021/12/17 12:01:46;;;;;;;24.90;14.70;;;;;;;;;;5033851;28;20258;-65
2021/12/17 12:04:22;;;;;;;30.87;15.97;;;;;;;;;;5016244;28;20313;-66
2021/12/17 12:07:01;;;;;;;37.37;17.13;;;;;;;;;;5016265;28;20581;-66
2021/12/17 12:09:46;;;;;;;36.83;16.13;;;;;;;;;;5016121;28;20187;-65
2021/12/17 12:12:12;;;;;;;27.07;14.97;;;;;;;;;;5016749;28;20179;-65
2021/12/17 12:14:38;;;;;;;29.23;14.53;;;;;;;;;;5017949;28;20198;-65
2021/12/17 12:17:04;;;;;;;20.83;11.70;;;;;;;;;;5017714;28;20191;-65
2021/12/17 12:19:49;;;;;;;19.17;11.93;;;;;;;;;;5035845;28;20179;-65
2021/12/17 12:22:29;;;;;;;29.57;13.20;;;;;;;;;;5035075;28;20207;-66
2021/12/17 12:25:13;;;;;;;30.27;15.13;;;;;;;;;;5034095;28;20596;-65
2021/12/17 12:27:45;;;;;;;24.50;12.90;;;;;;;;;;5033843;28;20199;-66
2021/12/17 12:30:11;;;;;;;18.03;10.10;;;;;;;;;;5034715;28;20160;-65
2021/12/17 12:32:57;;;;;;;18.73;10.93;;;;;;;;;;5016811;28;20187;-65
2021/12/17 12:35:23;;;;;;;19.00;10.90;;;;;;;;;;5034940;28;20289;-65
2021/12/17 12:38:09;;;;;;;19.87;11.63;;;;;;;;;;5019734;28;20225;-65
2021/12/17 12:40:43;;;;;;;17.77;10.73;;;;;;;;;;5037906;28;20183;-65
2021/12/17 12:43:24;;;;;;;19.50;11.77;;;;;;;;;;5019951;28;20229;-65
2021/12/17 12:45:50;;;;;;;13.53;9.90;;;;;;;;;;5037620;28;20199;-65
2021/12/17 12:48:29;;;;;;;21.03;10.80;;;;;;;;;;5037661;28;20693;-65
2021/12/17 12:51:14;;;;;;;14.23;9.63;;;;;;;;;;5037353;28;20175;-66
2021/12/17 12:53:45;;;;;;;15.53;10.57;;;;;;;;;;5037257;28;20171;-66
2021/12/17 12:56:16;;;;;;;15.67;10.00;;;;;;;;;;5037101;28;20231;-65
2021/12/17 12:58:46;;;;;;;12.47;8.33;;;;;;;;;;5037540;28;20170;-66
2021/12/17 13:01:15;;;;;;;15.27;9.13;;;;;;;;;;5019479;28;20226;-66
2021/12/17 13:03:41;;;;;;;13.07;7.80;;;;;;;;;;5037138;28;20183;-66
2021/12/17 13:06:15;;;;;;;15.50;9.40;;;;;;;;;;5036800;28;20667;-65
2021/12/17 13:08:41;;;;;;;11.10;8.50;;;;;;;;;;5037052;28;20242;-65
2021/12/17 13:11:07;;;;;;;9.00;6.40;;;;;;;;;;5036725;28;20643;-66
2021/12/17 13:13:57;;;;;;;9.27;6.93;;;;;;;;;;5043837;23;20690;-62
2021/12/17 13:16:43;;;;;;;7.67;5.83;;;;;;;;;;5039206;28;20190;-61
2021/12/17 13:24:25;;;;;;;6.07;5.43;;;;;;;;;;5036725;28;20183;-62
2021/12/17 13:26:53;;;;;;;5.93;4.20;;;;;;;;;;5036288;28;20207;-62
2021/12/17 13:29:24;;;;;;;5.57;4.10;;;;;;;;;;5036586;28;20230;-62
2021/12/17 13:31:53;;;;;;;3.87;2.73;;;;;;;;;;5036264;28;20175;-62
2021/12/17 13:34:22;;;;;;;4.57;2.67;;;;;;;;;;5036302;28;20175;-62
2021/12/17 13:36:54;;;;;;;4.63;2.50;;;;;;;;;;5036483;28;20194;-62
2021/12/17 13:39:21;;;;;;;3.60;2.77;;;;;;;;;;5036826;28;20215;-62
2021/12/17 13:41:47;;;;;;;3.60;2.03;;;;;;;;;;5037075;28;20598;-62
2021/12/17 13:44:33;;;;;;;3.07;1.73;;;;;;;;;;5020063;28;20545;-62
2021/12/17 13:47:13;;;;;;;1.93;1.77;;;;;;;;;;5037269;28;20203;-62
2021/12/17 13:49:47;;;;;;;1.90;1.70;;;;;;;;;;5027561;28;20175;-62
2021/12/17 13:52:13;;;;;;;2.20;2.00;;;;;;;;;;5048156;28;20564;-62
2021/12/17 13:54:40;;;;;;;3.27;2.20;;;;;;;;;;5048210;28;20230;-62
2021/12/17 13:57:07;;;;;;;2.30;2.10;;;;;;;;;;5042279;28;20183;-62
2021/12/17 13:59:35;;;;;;;2.83;2.20;;;;;;;;;;5019682;28;20533;-63
2021/12/17 14:02:15;;;;;;;3.50;2.60;;;;;;;;;;5035400;28;20616;-62
2021/12/17 14:04:42;;;;;;;3.47;3.17;;;;;;;;;;5035497;28;20658;-62
2021/12/17 14:07:09;;;;;;;4.57;3.70;;;;;;;;;;5017755;28;20207;-62
2021/12/17 14:09:36;;;;;;;5.00;4.50;;;;;;;;;;5017865;28;20274;-62
2021/12/17 14:12:09;;;;;;;6.57;5.33;;;;;;;;;;5035806;28;20222;-62
2021/12/17 14:14:35;;;;;;;7.40;5.30;;;;;;;;;;5035445;28;20198;-61
2021/12/17 14:17:02;;;;;;;6.30;5.47;;;;;;;;;;5017451;28;20306;-62
2021/12/17 14:19:36;;;;;;;6.63;5.33;;;;;;;;;;5035405;28;20190;-62
2021/12/17 14:22:02;;;;;;;19.00;13.70;;;;;;;;;;5034998;28;20627;-62
2021/12/17 14:24:29;;;;;;;12.90;11.43;;;;;;;;;;5035251;28;20706;-62
2021/12/17 14:26:55;;;;;;;12.97;10.60;;;;;;;;;;5035034;28;20207;-62
2021/12/17 14:29:22;;;;;;;21.50;16.03;;;;;;;;;;5035017;28;20214;-62
2021/12/17 14:31:58;;;;;;;7.47;6.50;;;;;;;;;;5035665;28;20167;-61
2021/12/17 14:34:24;;;;;;;11.83;9.33;;;;;;;;;;5035313;28;20175;-61
2021/12/17 14:36:49;;;;;;;10.63;8.93;;;;;;;;;;5034986;28;20171;-62
2021/12/17 14:39:22;;;;;;;16.67;12.33;;;;;;;;;;5017576;28;20717;-62
2021/12/17 14:41:56;;;;;;;32.83;28.63;;;;;;;;;;5034863;28;20159;-62
2021/12/17 14:46:58;;;;;;;9.13;8.20;;;;;;;;;;5034748;28;20280;-62
2021/12/17 15:00:33;;;;;;;8.73;7.83;;;;;;;;;;5048744;28;20229;-63
2021/12/17 15:03:07;;;;;;;8.70;7.10;;;;;;;;;;5040025;28;20590;-62
2021/12/17 15:05:33;;;;;;;7.80;7.00;;;;;;;;;;5020210;28;20683;-62
2021/12/17 15:08:00;;;;;;;7.23;6.50;;;;;;;;;;5021836;28;20202;-62
2021/12/17 15:10:26;;;;;;;9.13;6.37;;;;;;;;;;5017167;28;20575;-62
2021/12/17 15:12:57;;;;;;;8.47;6.90;;;;;;;;;;5034739;28;20285;-62
2021/12/17 15:15:27;;;;;;;7.50;5.73;;;;;;;;;;5034561;28;20551;-62
2021/12/17 15:17:54;;;;;;;7.93;7.13;;;;;;;;;;5016849;28;20175;-62
2021/12/17 15:20:25;;;;;;;7.60;5.73;;;;;;;;;;5016386;28;20320;-62
2021/12/17 15:22:51;;;;;;;6.90;6.20;;;;;;;;;;5034351;28;20223;-62
2021/12/17 15:25:18;;;;;;;7.93;7.23;;;;;;;;;;5034269;28;20179;-62
2021/12/17 15:27:45;;;;;;;9.20;8.30;;;;;;;;;;5034131;28;20213;-62
2021/12/17 15:30:12;;;;;;;10.63;9.53;;;;;;;;;;5034344;28;20627;-62
2021/12/17 15:32:39;;;;;;;12.03;8.67;;;;;;;;;;5016148;28;20207;-62
2021/12/17 15:35:05;;;;;;;7.97;7.17;;;;;;;;;;5033806;28;20179;-62
2021/12/17 15:37:31;;;;;;;8.30;7.43;;;;;;;;;;5034066;28;20191;-62
2021/12/17 15:39:57;;;;;;;14.80;13.30;;;;;;;;;;5033923;28;20186;-62
2021/12/17 15:42:23;;;;;;;21.33;19.13;;;;;;;;;;5016421;28;20670;-62
2021/12/17 15:44:49;;;;;;;16.93;15.30;;;;;;;;;;5034293;28;20525;-62
2021/12/17 15:47:15;;;;;;;11.00;9.90;;;;;;;;;;5016302;28;20741;-62
2021/12/17 15:49:41;;;;;;;10.20;9.17;;;;;;;;;;5033904;28;20289;-62
2021/12/17 15:52:08;;;;;;;10.47;8.80;;;;;;;;;;5033573;28;20195;-62
2021/12/17 15:54:37;;;;;;;25.00;22.47;;;;;;;;;;5015875;28;20290;-62
2021/12/17 15:57:04;;;;;;;10.57;9.53;;;;;;;;;;5033833;28;20245;-62
2021/12/17 15:59:30;;;;;;;15.77;13.27;;;;;;;;;;5033832;28;20179;-62
2021/12/17 16:01:57;;;;;;;14.87;13.33;;;;;;;;;;5015697;28;20183;-62
2021/12/17 16:04:23;;;;;;;15.37;13.73;;;;;;;;;;5015912;28;20188;-62
2021/12/17 16:06:49;;;;;;;25.17;21.10;;;;;;;;;;5033508;28;20179;-63
2021/12/17 16:10:58;;;;;;;15.27;13.67;;;;;;;;;;5035090;28;20662;-62
2021/12/17 16:23:16;;;;;;;16.33;14.37;;;;;;;;;;5037514;28;20210;-62
2021/12/17 16:25:42;;;;;;;21.60;19.30;;;;;;;;;;5019554;28;20175;-62
2021/12/17 16:28:08;;;;;;;16.23;14.47;;;;;;;;;;5038221;28;20561;-63
2021/12/17 16:30:34;;;;;;;16.23;14.57;;;;;;;;;;5037329;28;20198;-63
2021/12/17 16:33:00;;;;;;;21.30;16.43;;;;;;;;;;5037275;28;20195;-61
2021/12/17 16:35:26;;;;;;;14.83;13.23;;;;;;;;;;5037681;28;20685;-61
2021/12/17 16:37:52;;;;;;;15.90;14.13;;;;;;;;;;5037831;28;20229;-62
2021/12/17 16:40:18;;;;;;;19.47;15.00;;;;;;;;;;5037798;28;20273;-61
2021/12/17 16:42:45;;;;;;;14.90;13.30;;;;;;;;;;5019905;28;20199;-61
2021/12/17 16:45:30;;;;;;;17.30;14.10;;;;;;;;;;5037344;28;20201;-62
2021/12/17 16:47:57;;;;;;;16.20;14.40;;;;;;;;;;5019482;28;20241;-62
2021/12/17 16:50:27;;;;;;;17.67;15.30;;;;;;;;;;5037480;28;20266;-62
2021/12/17 16:52:54;;;;;;;22.83;17.50;;;;;;;;;;5040234;28;20195;-64
2021/12/17 16:55:20;;;;;;;18.20;16.27;;;;;;;;;;5059733;28;20179;-63
2021/12/17 16:57:46;;;;;;;21.03;16.50;;;;;;;;;;5042774;28;20655;-62
2021/12/17 17:00:12;;;;;;;20.97;17.37;;;;;;;;;;5037030;28;20185;-61
2021/12/17 17:02:38;;;;;;;19.03;16.63;;;;;;;;;;5037007;28;20199;-61
2021/12/17 17:05:05;;;;;;;27.57;20.10;;;;;;;;;;5019267;28;20634;-62
2021/12/17 17:07:31;;;;;;;26.87;20.13;;;;;;;;;;5036797;28;20211;-62
2021/12/17 17:09:57;;;;;;;22.07;17.67;;;;;;;;;;5037679;28;20175;-62
2021/12/17 17:12:26;;;;;;;28.60;22.13;;;;;;;;;;5036937;28;20222;-61
2021/12/17 17:14:51;;;;;;;20.30;16.23;;;;;;;;;;5036880;28;20187;-62
2021/12/17 17:17:18;;;;;;;24.00;20.30;;;;;;;;;;5037610;28;20175;-62
2021/12/17 17:19:44;;;;;;;24.30;18.63;;;;;;;;;;5037082;28;20237;-62
2021/12/17 17:22:11;;;;;;;21.77;18.50;;;;;;;;;;5018994;28;20217;-61
2021/12/17 17:24:37;;;;;;;19.23;16.93;;;;;;;;;;5038263;28;20701;-64
2021/12/17 17:27:04;;;;;;;21.47;19.07;;;;;;;;;;5021683;28;20211;-62
2021/12/17 17:29:30;;;;;;;19.03;16.97;;;;;;;;;;5018302;28;20259;-62
2021/12/17 17:31:55;;;;;;;19.80;17.70;;;;;;;;;;5036102;28;20183;-62
2021/12/17 17:34:22;;;;;;;20.57;18.03;;;;;;;;;;5020726;28;20183;-64
2021/12/17 17:36:48;;;;;;;23.97;17.47;;;;;;;;;;5037247;28;20267;-61